Time;durP1;ratioP1;P1;durP2;ratioP2;P2;SDS_P1;SDS_P2;PMS_P1;PMS_P2;Temp;Humidity;BMP_temperature;BMP_pressure;BME280_temperature;BME280_humidity;BME280_pressure;Samples;Min_cycle;Max_cycle;Signal;HPM_P1;HPM_P2
2021/03/14 00:01:13;;;;;;;3.95;1.00;;;;;;;2.99;85.50;98946.63;5098634;28;20074;-77
2021/03/14 00:03:40;;;;;;;2.50;0.80;;;;;;;3.02;85.94;98949.13;5098317;28;20102;-75
2021/03/14 00:06:06;;;;;;;5.03;1.02;;;;;;;3.04;84.87;98947.25;5096190;28;20050;-74
2021/03/14 00:08:34;;;;;;;6.57;0.85;;;;;;;3.02;84.82;98957.03;5091031;28;20456;-73
2021/03/14 00:11:02;;;;;;;2.95;0.70;;;;;;;3.01;84.65;98960.59;5063205;28;20056;-74
2021/03/14 00:13:34;;;;;;;2.22;0.80;;;;;;;3.00;85.57;98961.53;5092799;28;20064;-75
2021/03/14 00:16:02;;;;;;;4.53;1.23;;;;;;;3.02;84.53;98966.72;5097269;28;20052;-74
2021/03/14 00:18:40;;;;;;;3.72;0.68;;;;;;;3.10;84.11;98983.00;5095775;28;20397;-75
2021/03/14 00:21:08;;;;;;;3.85;0.80;;;;;;;3.11;84.55;98982.94;5097057;28;20059;-74
2021/03/14 00:23:34;;;;;;;5.47;0.63;;;;;;;3.05;84.60;98980.59;5097376;28;20048;-74
2021/03/14 00:26:01;;;;;;;2.70;0.77;;;;;;;3.12;85.08;98987.28;5096454;28;20047;-74
2021/03/14 00:28:27;;;;;;;3.70;0.98;;;;;;;3.12;85.63;98997.81;5098011;28;20105;-74
2021/03/14 00:30:54;;;;;;;2.47;0.80;;;;;;;2.99;86.31;98986.16;5097506;28;20338;-74
2021/03/14 00:33:20;;;;;;;7.43;0.90;;;;;;;3.02;85.77;99001.84;5097820;28;20055;-74
2021/03/14 00:35:47;;;;;;;3.72;1.98;;;;;;;3.02;85.29;99016.78;5097798;28;20059;-76
2021/03/14 00:38:13;;;;;;;7.90;0.90;;;;;;;3.00;86.52;99016.91;5097410;28;20345;-74
2021/03/14 00:40:40;;;;;;;4.57;1.05;;;;;;;2.96;86.86;99010.88;5097477;28;20055;-74
2021/03/14 00:43:07;;;;;;;4.43;1.08;;;;;;;2.99;86.13;99030.97;5097287;28;20048;-74
2021/03/14 00:45:35;;;;;;;2.25;0.90;;;;;;;3.06;86.60;99021.84;5097506;28;20051;-75
2021/03/14 00:48:05;;;;;;;8.75;1.15;;;;;;;3.09;86.95;99036.66;5097461;28;20052;-75
2021/03/14 00:50:33;;;;;;;4.43;0.98;;;;;;;3.04;87.06;99028.97;5097508;28;20051;-75
2021/03/14 00:52:59;;;;;;;6.70;1.33;;;;;;;3.06;85.93;99037.66;5096501;28;20044;-75
2021/03/14 00:55:26;;;;;;;5.18;1.08;;;;;;;3.03;86.34;99039.59;5097208;28;20433;-75
2021/03/14 00:57:52;;;;;;;5.72;1.65;;;;;;;3.05;86.91;99049.13;5097098;28;20469;-76
2021/03/14 01:00:18;;;;;;;4.88;1.30;;;;;;;2.99;86.88;99047.66;5097152;28;20101;-75
2021/03/14 01:02:45;;;;;;;7.40;2.90;;;;;;;3.01;86.61;99047.59;5097077;28;20063;-75
2021/03/14 01:05:12;;;;;;;4.30;1.00;;;;;;;3.04;85.85;99060.63;5097184;28;20062;-75
2021/03/14 01:07:38;;;;;;;4.78;1.02;;;;;;;3.05;85.89;99062.31;5096957;28;20056;-75
2021/03/14 01:10:06;;;;;;;4.97;1.35;;;;;;;3.01;85.24;99055.50;5079485;28;20048;-75
2021/03/14 01:12:36;;;;;;;4.57;1.35;;;;;;;3.10;85.61;99068.22;5096439;28;20055;-75
2021/03/14 01:15:04;;;;;;;4.55;1.13;;;;;;;3.07;85.67;99060.47;5096794;28;20052;-74
2021/03/14 01:17:31;;;;;;;11.70;1.40;;;;;;;3.12;86.84;99070.81;5096810;28;20059;-75
2021/03/14 01:19:57;;;;;;;7.70;1.60;;;;;;;3.15;85.46;99078.56;5079016;28;20051;-75
2021/03/14 01:22:23;;;;;;;7.05;1.52;;;;;;;3.10;85.56;99070.88;5096689;28;20044;-76
2021/03/14 01:24:53;;;;;;;8.52;1.00;;;;;;;3.14;85.14;99071.56;5096654;28;20399;-75
2021/03/14 01:27:19;;;;;;;4.55;1.10;;;;;;;3.14;85.74;99076.84;5096457;28;20421;-75
2021/03/14 01:29:46;;;;;;;4.35;0.90;;;;;;;3.14;84.91;99086.56;5096417;28;20059;-74
2021/03/14 01:32:12;;;;;;;7.05;1.20;;;;;;;3.15;85.93;99088.25;5095582;28;20052;-76
2021/03/14 01:34:38;;;;;;;4.22;1.42;;;;;;;3.11;85.26;99098.94;5078577;28;20422;-76
2021/03/14 01:37:04;;;;;;;5.45;0.93;;;;;;;3.09;85.43;99092.91;5096625;28;20060;-74
2021/03/14 01:39:30;;;;;;;7.10;1.15;;;;;;;3.14;85.38;99097.09;5078211;28;20429;-76
2021/03/14 01:41:57;;;;;;;4.60;1.40;;;;;;;3.16;85.25;99103.16;5095971;28;20147;-74
2021/03/14 01:44:23;;;;;;;8.82;1.35;;;;;;;3.14;86.10;99107.66;5095281;28;20044;-74
2021/03/14 01:46:50;;;;;;;1.05;0.70;;;;;;;3.15;85.42;99114.63;5080411;28;20074;-75
2021/03/14 01:49:17;;;;;;;7.95;1.65;;;;;;;3.12;85.81;99118.25;5096549;28;20433;-74
2021/03/14 01:51:43;;;;;;;6.47;1.95;;;;;;;3.03;85.51;99101.09;5078409;28;20077;-74
2021/03/14 01:54:10;;;;;;;5.70;1.20;;;;;;;3.02;86.67;99111.69;5078127;28;20067;-75
2021/03/14 01:56:37;;;;;;;6.10;1.60;;;;;;;2.98;86.38;99124.16;5095974;28;20488;-75
2021/03/14 01:59:04;;;;;;;5.95;1.63;;;;;;;2.96;86.02;99121.59;5095653;28;20052;-75
2021/03/14 02:01:31;;;;;;;7.18;1.80;;;;;;;2.93;86.99;99126.16;5095772;28;20062;-74
2021/03/14 02:03:58;;;;;;;5.53;1.75;;;;;;;2.94;86.19;99114.72;5095504;28;20344;-74
2021/03/14 02:06:24;;;;;;;7.00;1.88;;;;;;;2.84;86.44;99112.47;5095641;28;20451;-74
2021/03/14 02:08:50;;;;;;;4.68;1.83;;;;;;;2.92;86.45;99129.72;5077669;28;20063;-75
2021/03/14 02:11:17;;;;;;;5.20;1.42;;;;;;;2.81;85.70;99117.91;5095589;28;20063;-74
2021/03/14 02:13:49;;;;;;;6.47;1.67;;;;;;;2.94;85.80;99134.00;5095914;28;20059;-74
2021/03/14 02:16:18;;;;;;;7.63;1.80;;;;;;;2.85;87.01;99132.63;5095773;28;20048;-74
2021/03/14 02:18:50;;;;;;;6.80;1.95;;;;;;;2.92;86.76;99140.25;5078038;28;20051;-75
2021/03/14 02:21:17;;;;;;;8.45;2.17;;;;;;;2.94;85.63;99144.53;5095496;28;20052;-75
2021/03/14 02:24:09;;;;;;;6.30;1.83;;;;;;;2.96;86.29;99147.13;5094488;28;20078;-75
2021/03/14 02:26:45;;;;;;;5.32;1.77;;;;;;;2.99;85.98;99146.97;5095435;28;20063;-74
2021/03/14 02:29:19;;;;;;;6.60;2.05;;;;;;;2.97;86.45;99147.06;5095526;28;20050;-75
2021/03/14 02:31:46;;;;;;;5.85;2.15;;;;;;;2.96;85.81;99147.13;5095607;28;20052;-75
2021/03/14 02:34:17;;;;;;;9.13;2.40;;;;;;;2.93;86.43;99147.25;5095286;28;20408;-74
2021/03/14 02:36:45;;;;;;;7.67;2.47;;;;;;;2.89;86.49;99146.53;5095683;28;20044;-74
2021/03/14 02:39:16;;;;;;;9.65;3.15;;;;;;;2.97;87.12;99162.88;5095569;28;20109;-75
2021/03/14 02:41:44;;;;;;;8.87;1.83;;;;;;;2.92;86.54;99161.34;5095610;28;20063;-75
2021/03/14 02:44:14;;;;;;;9.40;2.97;;;;;;;2.89;86.36;99169.41;5094283;28;20055;-74
2021/03/14 02:46:43;;;;;;;13.77;2.22;;;;;;;2.86;85.65;99157.22;5095181;28;20048;-74
2021/03/14 02:49:11;;;;;;;8.65;2.25;;;;;;;2.86;86.65;99173.03;5095398;28;20090;-74
2021/03/14 02:51:41;;;;;;;9.27;2.50;;;;;;;2.87;86.99;99171.25;5095223;28;20059;-74
2021/03/14 02:54:07;;;;;;;9.43;2.07;;;;;;;2.80;86.41;99162.78;5077350;28;20059;-74
2021/03/14 02:56:34;;;;;;;6.28;1.95;;;;;;;2.74;86.36;99169.19;5077290;28;20329;-75
2021/03/14 02:59:02;;;;;;;6.53;1.80;;;;;;;2.71;86.12;99175.44;5095075;28;20101;-74
2021/03/14 03:01:31;;;;;;;5.38;1.88;;;;;;;2.68;87.02;99174.72;5077572;28;20052;-74
2021/03/14 03:04:01;;;;;;;11.60;2.50;;;;;;;2.72;85.84;99181.53;5077502;28;20106;-74
2021/03/14 03:06:29;;;;;;;16.40;2.25;;;;;;;2.72;86.46;99187.69;5095328;28;20040;-74
2021/03/14 03:08:56;;;;;;;8.65;2.38;;;;;;;2.68;85.73;99186.09;5095256;28;20052;-74
2021/03/14 03:11:23;;;;;;;8.57;2.60;;;;;;;2.66;86.05;99187.94;5094668;28;20056;-74
2021/03/14 03:13:52;;;;;;;9.90;2.05;;;;;;;2.66;85.83;99195.00;5094738;28;20352;-74
2021/03/14 03:16:21;;;;;;;9.48;2.20;;;;;;;2.66;86.10;99192.38;5097853;28;20502;-74
2021/03/14 03:18:50;;;;;;;11.77;2.38;;;;;;;2.67;85.76;99194.09;5098876;28;20052;-73
2021/03/14 03:21:19;;;;;;;9.25;2.63;;;;;;;2.66;86.03;99201.13;5098868;28;20048;-74
2021/03/14 03:23:46;;;;;;;11.07;2.08;;;;;;;2.56;87.34;99205.09;5080914;28;20383;-74
2021/03/14 03:26:14;;;;;;;9.40;1.92;;;;;;;2.56;86.47;99192.75;5081172;28;20056;-74
2021/03/14 03:28:42;;;;;;;5.93;1.85;;;;;;;2.52;86.88;99196.47;5099053;28;20097;-74
2021/03/14 03:31:08;;;;;;;7.72;2.30;;;;;;;2.55;86.35;99212.13;5099005;28;20052;-75
2021/03/14 03:33:36;;;;;;;11.20;3.05;;;;;;;2.56;86.82;99223.53;5098684;28;20340;-75
2021/03/14 03:36:02;;;;;;;15.48;2.78;;;;;;;2.58;86.56;99225.16;5098977;28;20056;-75
2021/03/14 03:38:32;;;;;;;11.35;2.20;;;;;;;2.48;86.76;99212.44;5080678;28;20097;-74
2021/03/14 03:40:59;;;;;;;8.00;2.10;;;;;;;2.51;86.47;99223.72;5098516;28;20362;-74
2021/03/14 03:43:32;;;;;;;16.35;2.47;;;;;;;2.45;86.69;99221.34;5098862;28;20063;-74
2021/03/14 03:46:01;;;;;;;11.25;2.45;;;;;;;2.55;86.01;99242.88;5098406;28;20052;-74
2021/03/14 03:48:40;;;;;;;10.32;2.08;;;;;;;2.54;86.44;99236.78;5098506;28;20040;-74
2021/03/14 03:51:07;;;;;;;14.02;2.67;;;;;;;2.54;86.88;99238.53;5098657;28;20349;-74
2021/03/14 03:53:34;;;;;;;15.50;2.25;;;;;;;2.49;86.67;99241.38;5098314;28;20048;-74
2021/03/14 03:56:02;;;;;;;13.32;2.08;;;;;;;2.42;86.31;99242.56;5098175;28;20430;-75
2021/03/14 03:58:31;;;;;;;13.35;2.72;;;;;;;2.47;86.54;99251.13;5098184;28;20429;-74
2021/03/14 04:00:58;;;;;;;8.13;2.20;;;;;;;2.47;86.91;99251.13;5098250;28;20055;-74
2021/03/14 04:03:25;;;;;;;12.65;2.45;;;;;;;2.51;86.49;99257.94;5098202;28;20048;-74
2021/03/14 04:05:56;;;;;;;13.07;2.90;;;;;;;2.42;85.96;99242.56;5097072;28;20048;-74
2021/03/14 04:08:23;;;;;;;10.23;2.58;;;;;;;2.58;86.33;99261.19;5098147;28;20059;-74
2021/03/14 04:10:51;;;;;;;20.40;2.88;;;;;;;2.53;85.90;99266.66;5097030;28;20075;-73
2021/03/14 04:13:18;;;;;;;14.02;2.67;;;;;;;2.51;86.32;99262.38;5102067;28;20051;-73
2021/03/14 04:15:45;;;;;;;11.93;2.67;;;;;;;2.58;86.30;99269.94;5102670;28;20052;-73
2021/03/14 04:18:11;;;;;;;15.10;2.92;;;;;;;2.58;86.41;99269.94;5101599;28;20456;-74
2021/03/14 04:20:40;;;;;;;13.52;2.03;;;;;;;2.67;85.74;99281.03;5097807;28;20052;-74
2021/03/14 04:23:19;;;;;;;11.80;2.38;;;;;;;2.62;86.14;99277.72;5097807;28;20455;-75
2021/03/14 04:25:49;;;;;;;16.98;3.25;;;;;;;2.55;87.49;99270.09;5097708;28;20056;-75
2021/03/14 04:28:16;;;;;;;12.40;2.47;;;;;;;2.65;87.44;99280.22;5096601;28;20048;-74
2021/03/14 04:30:43;;;;;;;13.32;3.25;;;;;;;2.66;86.73;99290.72;5097781;28;20052;-74
2021/03/14 04:33:10;;;;;;;11.82;2.13;;;;;;;2.66;86.96;99289.88;5097767;28;20342;-74
2021/03/14 04:35:39;;;;;;;17.10;2.70;;;;;;;2.64;88.03;99300.47;5097772;28;20044;-75
2021/03/14 04:38:07;;;;;;;8.52;2.90;;;;;;;2.56;86.90;99270.97;5097392;28;20044;-75
2021/03/14 04:40:34;;;;;;;13.80;2.17;;;;;;;2.61;87.38;99286.56;5097650;28;20059;-75
2021/03/14 04:43:02;;;;;;;11.63;2.40;;;;;;;2.66;87.41;99292.50;5079596;28;20052;-74
2021/03/14 04:45:29;;;;;;;14.05;2.75;;;;;;;2.64;86.94;99294.31;5097559;28;20055;-75
2021/03/14 04:47:55;;;;;;;9.80;1.95;;;;;;;2.60;86.57;99290.13;5097191;28;20448;-74
2021/03/14 04:50:28;;;;;;;8.52;2.33;;;;;;;2.64;87.41;99296.97;5080134;28;20067;-74
2021/03/14 04:52:58;;;;;;;9.10;2.30;;;;;;;2.58;87.23;99312.09;5097304;28;20117;-75
2021/03/14 04:55:27;;;;;;;5.82;1.85;;;;;;;2.54;87.85;99304.38;5097684;28;20048;-76
2021/03/14 04:57:58;;;;;;;16.27;2.55;;;;;;;2.48;86.93;99294.09;5097234;28;20079;-75
2021/03/14 05:00:25;;;;;;;17.87;2.10;;;;;;;2.55;86.74;99314.88;5079377;28;20081;-75
2021/03/14 05:02:56;;;;;;;11.73;2.38;;;;;;;2.56;86.89;99323.66;5097319;28;20106;-74
2021/03/14 05:05:24;;;;;;;19.23;2.83;;;;;;;2.57;87.75;99335.88;5096883;28;20083;-75
2021/03/14 05:07:51;;;;;;;8.13;2.45;;;;;;;2.52;87.15;99335.22;5078979;28;20055;-74
2021/03/14 05:10:22;;;;;;;16.13;3.00;;;;;;;2.55;87.15;99343.84;5096962;28;20434;-75
2021/03/14 05:12:50;;;;;;;15.70;2.95;;;;;;;2.52;86.72;99335.22;5096788;28;20059;-75
2021/03/14 05:15:18;;;;;;;16.48;3.03;;;;;;;2.51;86.95;99341.41;5096950;28;20055;-74
2021/03/14 05:17:46;;;;;;;7.68;2.00;;;;;;;2.41;86.83;99330.38;5096893;28;20056;-74
2021/03/14 05:20:16;;;;;;;14.02;3.90;;;;;;;2.50;87.07;99351.06;5096754;28;20092;-74
2021/03/14 05:22:43;;;;;;;12.82;3.03;;;;;;;2.49;87.00;99352.00;5097051;28;20345;-74
2021/03/14 05:25:11;;;;;;;10.95;2.30;;;;;;;2.43;87.40;99350.47;5096508;28;20064;-74
2021/03/14 05:27:49;;;;;;;11.40;2.40;;;;;;;2.35;87.05;99342.03;5096575;28;20052;-75
2021/03/14 05:30:18;;;;;;;12.23;2.45;;;;;;;2.43;87.32;99350.47;5096786;28;20055;-74
2021/03/14 05:32:44;;;;;;;7.35;2.08;;;;;;;2.35;87.14;99341.16;5078766;28;20044;-74
2021/03/14 05:35:12;;;;;;;11.90;2.47;;;;;;;2.41;87.02;99359.34;5078731;28;20388;-74
2021/03/14 05:37:38;;;;;;;13.40;2.95;;;;;;;2.40;87.80;99373.44;5096131;28;20177;-75
2021/03/14 05:40:06;;;;;;;12.23;2.42;;;;;;;2.38;87.66;99360.34;5096470;28;20066;-75
2021/03/14 05:42:33;;;;;;;8.55;1.98;;;;;;;2.41;87.66;99377.78;5095233;28;20044;-75
2021/03/14 05:45:04;;;;;;;11.60;2.35;;;;;;;2.39;86.66;99367.31;5096292;28;20433;-73
2021/03/14 05:47:31;;;;;;;13.23;2.90;;;;;;;2.45;87.25;99376.72;5094694;28;20047;-73
2021/03/14 05:49:57;;;;;;;21.30;3.40;;;;;;;2.41;87.12;99364.63;5096096;28;20216;-72
2021/03/14 05:52:25;;;;;;;13.25;3.80;;;;;;;2.46;87.30;99381.09;5096387;28;20063;-73
2021/03/14 05:54:52;;;;;;;14.13;2.67;;;;;;;2.47;87.56;99389.84;5096395;28;20056;-74
2021/03/14 05:57:19;;;;;;;15.43;2.90;;;;;;;2.47;87.19;99387.22;5095917;28;20055;-73
2021/03/14 05:59:50;;;;;;;10.80;3.80;;;;;;;2.47;87.21;99377.56;5096353;28;20059;-73
2021/03/14 06:02:17;;;;;;;;;;;;;;;2.49;86.61;99388.88;5097135;28;20060;-74
2021/03/14 06:04:45;;;;;;;17.42;3.20;;;;;;;2.48;87.04;99400.34;5096428;28;19924;-73
2021/03/14 06:07:12;;;;;;;13.38;3.15;;;;;;;2.38;87.01;99376.13;5095745;28;20464;-73
2021/03/14 06:09:40;;;;;;;8.82;3.05;;;;;;;2.43;86.90;99370.69;5096117;28;20341;-73
2021/03/14 06:12:10;;;;;;;14.15;2.83;;;;;;;2.58;87.04;99396.41;5095571;28;20060;-73
2021/03/14 06:14:38;;;;;;;12.23;2.83;;;;;;;2.59;86.81;99402.53;5090351;28;20040;-72
2021/03/14 06:17:04;;;;;;;9.18;3.80;;;;;;;2.58;87.19;99401.66;5089013;28;20080;-74
2021/03/14 06:19:31;;;;;;;15.00;2.95;;;;;;;2.53;87.05;99377.31;5086460;28;20080;-74
2021/03/14 06:22:23;;;;;;;8.98;2.72;;;;;;;2.74;86.78;99405.47;5066258;28;20060;-73
2021/03/14 06:24:52;;;;;;;12.05;2.60;;;;;;;2.75;87.02;99408.03;5075740;28;20052;-79
2021/03/14 06:27:51;;;;;;;20.77;3.80;;;;;;;2.74;86.88;99411.59;5087992;28;20044;-76
2021/03/14 06:30:25;;;;;;;8.93;2.60;;;;;;;2.78;86.66;99418.44;5077321;28;20483;-75
2021/03/14 06:33:05;;;;;;;18.35;3.78;;;;;;;2.80;86.45;99426.31;5096041;28;20106;-76
2021/03/14 06:35:40;;;;;;;13.15;2.63;;;;;;;2.86;86.84;99426.06;5096496;28;20056;-76
2021/03/14 06:38:36;;;;;;;14.32;3.33;;;;;;;2.98;86.63;99432.59;5094156;28;20048;-75
2021/03/14 06:41:20;;;;;;;19.27;3.08;;;;;;;2.94;86.75;99428.38;5084342;28;20048;-76
2021/03/14 06:43:55;;;;;;;14.85;3.53;;;;;;;2.97;86.93;99425.59;5096711;28;20051;-75
2021/03/14 06:46:30;;;;;;;14.52;3.17;;;;;;;2.97;85.96;99428.25;5092898;28;20048;-73
2021/03/14 06:49:05;;;;;;;11.27;2.63;;;;;;;3.04;86.12;99440.25;5092319;28;20460;-73
2021/03/14 06:51:36;;;;;;;11.98;2.30;;;;;;;3.07;86.65;99439.25;5094393;28;20101;-77
2021/03/14 06:54:31;;;;;;;19.58;3.50;;;;;;;3.21;86.73;99446.63;5094803;28;20059;-75
2021/03/14 06:57:17;;;;;;;16.80;2.92;;;;;;;3.20;85.32;99453.66;5094730;28;20052;-77
2021/03/14 06:59:54;;;;;;;13.10;2.40;;;;;;;3.18;86.20;99452.00;5075717;28;20070;-76
2021/03/14 07:02:29;;;;;;;17.10;3.30;;;;;;;3.25;85.70;99469.28;5092558;28;20052;-74
2021/03/14 07:05:02;;;;;;;21.83;4.15;;;;;;;3.23;86.20;99465.84;5076666;28;20440;-75
2021/03/14 07:07:37;;;;;;;15.18;3.30;;;;;;;3.36;86.16;99472.34;5094083;28;20036;-75
2021/03/14 07:10:11;;;;;;;16.45;3.22;;;;;;;3.42;85.99;99471.19;5092462;28;20441;-77
2021/03/14 07:12:40;;;;;;;17.35;3.67;;;;;;;3.37;85.43;99478.44;5094150;28;20059;-78
2021/03/14 07:15:14;;;;;;;16.65;3.55;;;;;;;3.40;85.89;99483.59;5093247;28;20044;-74
2021/03/14 07:18:00;;;;;;;16.50;3.67;;;;;;;3.43;85.58;99469.44;5091922;28;20055;-74
2021/03/14 07:20:29;;;;;;;16.23;3.88;;;;;;;3.52;85.82;99491.00;5092987;28;20048;-74
2021/03/14 07:23:02;;;;;;;22.20;4.20;;;;;;;3.52;86.07;99491.00;5093947;28;20449;-75
2021/03/14 07:25:30;;;;;;;22.05;4.18;;;;;;;3.51;85.01;99491.06;5094231;28;20483;-76
2021/03/14 07:27:57;;;;;;;13.18;4.32;;;;;;;3.56;85.75;99494.38;5094221;28;20052;-76
2021/03/14 07:30:26;;;;;;;21.42;5.45;;;;;;;3.61;85.61;99513.50;5093691;28;20070;-76
2021/03/14 07:32:53;;;;;;;17.95;5.38;;;;;;;3.56;85.44;99511.97;5093992;28;20137;-76
2021/03/14 07:35:21;;;;;;;14.90;4.85;;;;;;;3.66;85.72;99516.78;5093633;28;20373;-74
2021/03/14 07:37:52;;;;;;;14.05;4.55;;;;;;;3.60;85.12;99514.41;5094083;28;20085;-77
2021/03/14 07:40:22;;;;;;;12.10;4.40;;;;;;;3.69;85.15;99517.59;5094049;28;20050;-77
2021/03/14 07:43:00;;;;;;;18.05;5.13;;;;;;;3.75;86.03;99530.50;5057191;28;20044;-76
2021/03/14 07:45:29;;;;;;;18.13;4.43;;;;;;;3.66;85.54;99527.34;5074691;28;20052;-75
2021/03/14 07:47:57;;;;;;;12.55;3.80;;;;;;;3.66;86.78;99531.78;5079328;28;20494;-75
2021/03/14 07:50:35;;;;;;;14.98;3.33;;;;;;;3.57;86.33;99534.78;5073986;28;20445;-76
2021/03/14 07:53:10;;;;;;;9.85;3.20;;;;;;;3.56;87.07;99546.28;5076940;28;20131;-76
2021/03/14 07:55:38;;;;;;;14.50;2.90;;;;;;;3.51;87.60;99549.13;5094826;28;20056;-76
2021/03/14 07:58:05;;;;;;;17.33;3.17;;;;;;;3.46;87.71;99573.06;5094594;28;20330;-74
2021/03/14 08:00:37;;;;;;;9.32;2.67;;;;;;;3.41;88.13;99553.91;5094471;28;20055;-75
2021/03/14 08:03:09;;;;;;;9.20;2.58;;;;;;;3.40;88.71;99553.03;5080463;28;20134;-76
2021/03/14 08:05:38;;;;;;;7.53;2.25;;;;;;;3.38;88.40;99565.44;5097863;28;20393;-76
2021/03/14 08:08:32;;;;;;;9.82;2.20;;;;;;;3.40;88.71;99560.94;5097188;28;20040;-80
2021/03/14 08:10:59;;;;;;;10.05;3.25;;;;;;;3.37;89.58;99563.72;5064452;28;20063;-76
2021/03/14 08:13:31;;;;;;;7.15;2.30;;;;;;;3.38;89.42;99583.91;5098070;28;20044;-74
2021/03/14 08:16:03;;;;;;;10.68;2.92;;;;;;;3.34;90.96;99586.75;5097899;28;20452;-76
2021/03/14 08:18:43;;;;;;;5.20;2.10;;;;;;;3.28;90.67;99585.22;5097809;28;20109;-76
2021/03/14 08:21:22;;;;;;;6.07;1.90;;;;;;;3.11;91.55;99593.81;5097504;28;20052;-78
2021/03/14 08:24:09;;;;;;;3.53;1.50;;;;;;;3.11;91.50;99593.81;5097607;28;20729;-77
2021/03/14 08:26:37;;;;;;;3.33;2.33;;;;;;;3.19;91.53;99597.00;5097793;28;20052;-75
2021/03/14 08:29:12;;;;;;;7.07;2.40;;;;;;;3.06;90.70;99574.66;5079976;28;20391;-77
2021/03/14 08:31:39;;;;;;;4.20;2.03;;;;;;;3.25;89.79;99598.50;5079888;28;20051;-72
2021/03/14 08:34:38;;;;;;;7.82;2.83;;;;;;;3.26;91.61;99611.66;5097633;28;20063;-76
2021/03/14 08:37:21;;;;;;;7.15;2.33;;;;;;;3.28;91.45;99611.59;5080311;28;20390;-74
2021/03/14 08:39:47;;;;;;;6.70;2.90;;;;;;;3.28;91.09;99608.97;5079262;28;20055;-74
2021/03/14 08:42:13;;;;;;;10.02;4.07;;;;;;;3.30;91.75;99608.88;5095620;28;20517;-74
2021/03/14 08:44:41;;;;;;;7.88;3.60;;;;;;;3.31;90.86;99619.38;5079155;28;20052;-73
2021/03/14 08:47:13;;;;;;;6.47;2.88;;;;;;;3.42;90.66;99623.38;5096775;28;20056;-74
2021/03/14 08:49:44;;;;;;;7.32;3.47;;;;;;;3.43;90.51;99619.81;5096726;28;20471;-73
2021/03/14 08:52:10;;;;;;;11.48;4.70;;;;;;;3.42;90.69;99616.31;5097040;28;20048;-73
2021/03/14 08:54:51;;;;;;;10.75;3.90;;;;;;;3.40;90.62;99615.50;5096635;28;20060;-72
2021/03/14 08:57:19;;;;;;;9.13;3.63;;;;;;;3.57;90.88;99621.88;5094097;28;20392;-75
2021/03/14 08:59:49;;;;;;;12.73;3.22;;;;;;;3.65;90.37;99638.28;5079017;28;20322;-74
2021/03/14 09:02:27;;;;;;;7.18;2.97;;;;;;;3.67;90.71;99631.16;5097137;28;20059;-74
2021/03/14 09:05:12;;;;;;;5.90;3.00;;;;;;;3.62;91.01;99636.63;5063511;28;20052;-75
2021/03/14 09:07:42;;;;;;;6.07;2.63;;;;;;;3.60;90.11;99649.00;5094289;28;20044;-79
2021/03/14 09:10:16;;;;;;;7.78;3.00;;;;;;;3.37;90.95;99623.53;5097312;28;20130;-80
2021/03/14 09:12:45;;;;;;;12.57;4.35;;;;;;;3.52;90.74;99662.53;5093187;28;20060;-77
2021/03/14 09:15:12;;;;;;;6.18;2.83;;;;;;;3.55;91.34;99661.53;5096073;28;20044;-76
2021/03/14 09:17:41;;;;;;;7.60;2.47;;;;;;;3.46;91.15;99665.41;5080231;28;20055;-74
2021/03/14 09:20:21;;;;;;;6.63;2.72;;;;;;;3.52;91.24;99656.38;5079877;28;20486;-76
2021/03/14 09:22:47;;;;;;;5.63;2.67;;;;;;;3.64;90.38;99665.56;5096937;28;20330;-76
2021/03/14 09:25:17;;;;;;;5.63;2.33;;;;;;;3.52;90.09;99644.06;5096703;28;20365;-74
2021/03/14 09:27:47;;;;;;;5.20;2.47;;;;;;;3.71;91.21;99672.31;5094112;28;20132;-75
2021/03/14 09:30:17;;;;;;;3.63;2.10;;;;;;;3.58;90.70;99669.31;5094561;28;20489;-74
2021/03/14 09:33:01;;;;;;;7.57;2.70;;;;;;;3.66;90.72;99676.94;5092579;28;20089;-71
2021/03/14 09:35:32;;;;;;;9.05;2.47;;;;;;;3.73;91.54;99674.91;5058678;28;20127;-74
2021/03/14 09:37:59;;;;;;;5.13;2.28;;;;;;;3.85;92.13;99697.28;5069893;28;20131;-77
2021/03/14 09:40:34;;;;;;;2.47;2.10;;;;;;;3.80;90.81;99697.47;5095546;28;20404;-77
2021/03/14 09:43:25;;;;;;;5.60;1.98;;;;;;;3.88;89.79;99692.75;5096245;28;20062;-74
2021/03/14 09:45:54;;;;;;;5.53;2.40;;;;;;;3.90;90.13;99698.84;5096256;28;20062;-74
2021/03/14 09:48:23;;;;;;;4.55;2.10;;;;;;;3.92;88.88;99689.06;5078659;28;20138;-73
2021/03/14 09:50:57;;;;;;;5.93;2.42;;;;;;;4.03;89.17;99708.91;5078049;28;20060;-73
2021/03/14 09:53:26;;;;;;;3.60;2.22;;;;;;;4.16;89.30;99703.97;5096194;28;20383;-77
2021/03/14 09:55:58;;;;;;;6.00;2.22;;;;;;;4.25;88.93;99708.00;5095313;28;20066;-75
2021/03/14 09:58:26;;;;;;;7.00;2.25;;;;;;;4.43;88.51;99711.66;5096394;28;20048;-76
2021/03/14 10:00:54;;;;;;;4.82;2.30;;;;;;;4.66;87.94;99710.66;5074976;28;20091;-74
2021/03/14 10:03:29;;;;;;;4.38;2.35;;;;;;;4.60;87.04;99709.16;5076106;28;20044;-76
2021/03/14 10:06:00;;;;;;;4.20;2.60;;;;;;;4.63;88.05;99718.69;5058128;28;20056;-77
2021/03/14 10:08:28;;;;;;;;;;;;;;;4.60;88.34;99718.84;5076195;28;20495;-75
2021/03/14 10:11:15;;;;;;;5.32;3.92;;;;;;;4.48;88.50;99707.88;5057703;28;20280;-76
2021/03/14 10:13:44;;;;;;;4.22;2.05;;;;;;;4.50;87.04;99734.25;5076049;28;20400;-77
2021/03/14 10:16:14;;;;;;;3.67;2.05;;;;;;;4.42;88.25;99733.72;5057987;28;20048;-75
2021/03/14 10:18:42;;;;;;;4.95;2.72;;;;;;;4.35;88.49;99746.31;5075421;28;20055;-72
2021/03/14 10:21:25;;;;;;;9.40;3.60;;;;;;;4.27;88.61;99736.09;5074389;28;20078;-73
2021/03/14 10:24:31;;;;;;;8.18;3.78;;;;;;;4.36;88.47;99758.59;5075754;28;20056;-78
2021/03/14 10:27:04;;;;;;;5.63;4.03;;;;;;;4.34;88.75;99744.59;5089043;28;20056;-76
2021/03/14 10:29:39;;;;;;;7.40;3.53;;;;;;;4.60;88.91;99755.84;5093224;28;20130;-71
2021/03/14 10:32:22;;;;;;;6.50;4.00;;;;;;;4.64;87.62;99762.75;5094438;28;20086;-74
2021/03/14 10:34:57;;;;;;;6.80;4.20;;;;;;;4.60;87.97;99766.44;5094775;28;20046;-74
2021/03/14 10:37:31;;;;;;;6.55;3.70;;;;;;;4.70;88.00;99767.75;5095206;28;20075;-72
2021/03/14 10:40:05;;;;;;;6.13;3.90;;;;;;;4.65;88.09;99763.59;5094589;28;20074;-72
2021/03/14 10:42:37;;;;;;;7.53;5.10;;;;;;;4.82;87.04;99776.06;5095114;28;20105;-73
2021/03/14 10:45:16;;;;;;;7.43;4.25;;;;;;;4.96;87.53;99772.84;5095067;28;20052;-74
2021/03/14 10:47:45;;;;;;;6.57;3.95;;;;;;;5.11;87.28;99763.34;5095322;28;20344;-74
2021/03/14 10:50:15;;;;;;;7.45;4.05;;;;;;;5.41;85.50;99770.84;5095458;28;20083;-77
2021/03/14 10:52:43;;;;;;;7.75;3.78;;;;;;;5.50;84.44;99773.03;5095097;28;20055;-75
2021/03/14 10:55:28;;;;;;;8.90;3.53;;;;;;;5.69;84.43;99777.50;5077311;28;20066;-74
2021/03/14 10:58:15;;;;;;;5.63;4.22;;;;;;;5.82;85.06;99775.97;5094826;28;20083;-75
2021/03/14 11:00:49;;;;;;;6.78;3.80;;;;;;;5.89;82.39;99789.78;5093400;28;20437;-74
2021/03/14 11:03:31;;;;;;;6.38;3.78;;;;;;;5.91;82.70;99787.94;5093353;28;20142;-75
2021/03/14 11:06:17;;;;;;;7.95;3.95;;;;;;;5.93;83.93;99795.78;5095121;28;20052;-72
2021/03/14 11:08:49;;;;;;;8.32;4.35;;;;;;;5.97;84.09;99792.06;5094749;28;20056;-74
2021/03/14 11:11:16;;;;;;;6.68;4.20;;;;;;;6.05;82.79;99786.44;5074135;28;20134;-74
2021/03/14 11:13:43;;;;;;;10.13;4.10;;;;;;;6.22;82.06;99797.06;5091930;28;20348;-74
2021/03/14 11:16:09;;;;;;;5.07;3.30;;;;;;;6.07;80.55;99782.78;5076870;28;20048;-74
2021/03/14 11:18:38;;;;;;;8.68;4.07;;;;;;;6.19;80.72;99793.72;5092505;28;20097;-75
2021/03/14 11:21:07;;;;;;;7.47;3.67;;;;;;;6.17;79.90;99785.84;5077757;28;20309;-74
2021/03/14 11:23:33;;;;;;;7.40;3.90;;;;;;;6.41;81.06;99774.09;5095341;28;20044;-77
2021/03/14 11:26:03;;;;;;;7.97;3.45;;;;;;;6.70;78.93;99790.34;5094298;28;20388;-75
2021/03/14 11:28:30;;;;;;;8.70;3.40;;;;;;;6.85;79.07;99789.56;5095071;28;20135;-75
2021/03/14 11:30:58;;;;;;;5.88;3.30;;;;;;;7.09;78.91;99783.94;5094081;28;20097;-74
2021/03/14 11:33:26;;;;;;;5.72;3.30;;;;;;;7.11;76.27;99797.97;5076992;28;20048;-75
2021/03/14 11:35:53;;;;;;;5.82;3.70;;;;;;;6.83;77.11;99791.44;5095683;28;20067;-78
2021/03/14 11:38:20;;;;;;;7.22;3.50;;;;;;;6.86;77.91;99796.56;5080770;28;20051;-76
2021/03/14 11:40:53;;;;;;;7.78;3.20;;;;;;;7.01;78.06;99802.88;5098387;28;20055;-77
2021/03/14 11:43:20;;;;;;;4.20;2.90;;;;;;;7.00;76.49;99801.19;5068610;28;20071;-78
2021/03/14 11:45:46;;;;;;;7.50;2.55;;;;;;;7.05;76.32;99800.94;5098881;28;20059;-78
2021/03/14 11:48:13;;;;;;;7.00;3.05;;;;;;;7.12;76.24;99804.97;5097254;28;20081;-78
2021/03/14 11:50:41;;;;;;;5.40;3.15;;;;;;;6.98;75.52;99792.41;5098863;28;20070;-77
2021/03/14 11:53:07;;;;;;;6.22;3.50;;;;;;;7.24;77.04;99802.63;5064329;28;20383;-74
2021/03/14 11:55:33;;;;;;;8.38;3.53;;;;;;;7.22;73.93;99804.47;5098659;28;20051;-78